sensor_id;sensor_type;location;lat;lon;timestamp;temperature;humidity
5508;DHT22;2776;51.046;6.772;2023-05-07T00:01:35;16.10;99.90
5508;DHT22;2776;51.046;6.772;2023-05-07T00:04:04;16.10;99.90
5508;DHT22;2776;51.046;6.772;2023-05-07T00:06:32;16.00;99.90
5508;DHT22;2776;51.046;6.772;2023-05-07T00:08:59;16.00;99.90
5508;DHT22;2776;51.046;6.772;2023-05-07T00:11:26;16.00;99.90
5508;DHT22;2776;51.046;6.772;2023-05-07T00:13:54;15.90;99.90
5508;DHT22;2776;51.046;6.772;2023-05-07T00:16:20;16.00;99.90
5508;DHT22;2776;51.046;6.772;2023-05-07T00:18:47;16.00;99.90
5508;DHT22;2776;51.046;6.772;2023-05-07T00:21:15;15.90;99.90
5508;DHT22;2776;51.046;6.772;2023-05-07T00:23:42;15.90;99.90
5508;DHT22;2776;51.046;6.772;2023-05-07T00:26:09;15.90;99.90
5508;DHT22;2776;51.046;6.772;2023-05-07T00:28:35;15.90;99.90
5508;DHT22;2776;51.046;6.772;2023-05-07T00:31:02;15.80;99.90
5508;DHT22;2776;51.046;6.772;2023-05-07T00:33:29;15.80;99.90
5508;DHT22;2776;51.046;6.772;2023-05-07T00:35:56;15.80;99.90
5508;DHT22;2776;51.046;6.772;2023-05-07T00:38:24;15.80;99.90
5508;DHT22;2776;51.046;6.772;2023-05-07T00:40:50;15.80;99.90
5508;DHT22;2776;51.046;6.772;2023-05-07T00:43:17;15.70;99.90
5508;DHT22;2776;51.046;6.772;2023-05-07T00:45:44;15.70;99.90
5508;DHT22;2776;51.046;6.772;2023-05-07T00:48:11;15.70;99.90
5508;DHT22;2776;51.046;6.772;2023-05-07T00:50:38;15.60;99.90
5508;DHT22;2776;51.046;6.772;2023-05-07T00:53:05;15.60;99.90
5508;DHT22;2776;51.046;6.772;2023-05-07T00:55:35;15.60;99.90
5508;DHT22;2776;51.046;6.772;2023-05-07T00:58:02;15.60;99.90
5508;DHT22;2776;51.046;6.772;2023-05-07T01:00:29;15.50;99.90
5508;DHT22;2776;51.046;6.772;2023-05-07T01:02:56;15.60;99.90
5508;DHT22;2776;51.046;6.772;2023-05-07T01:05:23;15.50;99.90
5508;DHT22;2776;51.046;6.772;2023-05-07T01:07:53;15.50;99.90
5508;DHT22;2776;51.046;6.772;2023-05-07T01:10:21;15.40;99.90
5508;DHT22;2776;51.046;6.772;2023-05-07T01:12:50;15.40;99.90
5508;DHT22;2776;51.046;6.772;2023-05-07T01:15:18;15.20;99.90
5508;DHT22;2776;51.046;6.772;2023-05-07T01:17:45;15.20;99.90
5508;DHT22;2776;51.046;6.772;2023-05-07T01:20:12;15.30;99.90
5508;DHT22;2776;51.046;6.772;2023-05-07T01:22:40;15.30;99.90
5508;DHT22;2776;51.046;6.772;2023-05-07T01:25:09;15.30;99.90
5508;DHT22;2776;51.046;6.772;2023-05-07T01:27:36;15.30;99.90
5508;DHT22;2776;51.046;6.772;2023-05-07T01:30:03;15.40;99.90
5508;DHT22;2776;51.046;6.772;2023-05-07T01:32:35;15.40;99.90
5508;DHT22;2776;51.046;6.772;2023-05-07T01:35:03;15.30;99.90
5508;DHT22;2776;51.046;6.772;2023-05-07T01:37:32;15.30;99.90
5508;DHT22;2776;51.046;6.772;2023-05-07T01:40:01;15.30;99.90
5508;DHT22;2776;51.046;6.772;2023-05-07T01:42:28;15.30;99.90
5508;DHT22;2776;51.046;6.772;2023-05-07T01:44:55;15.30;99.90
5508;DHT22;2776;51.046;6.772;2023-05-07T01:47:23;15.20;99.90
5508;DHT22;2776;51.046;6.772;2023-05-07T01:49:50;15.30;99.90
5508;DHT22;2776;51.046;6.772;2023-05-07T01:52:17;15.40;99.90
5508;DHT22;2776;51.046;6.772;2023-05-07T01:54:43;15.40;99.90
5508;DHT22;2776;51.046;6.772;2023-05-07T01:57:12;15.40;99.90
5508;DHT22;2776;51.046;6.772;2023-05-07T01:59:38;15.40;99.90
5508;DHT22;2776;51.046;6.772;2023-05-07T02:02:05;15.40;99.90
5508;DHT22;2776;51.046;6.772;2023-05-07T02:04:32;15.40;99.90
5508;DHT22;2776;51.046;6.772;2023-05-07T02:06:58;15.40;99.90
5508;DHT22;2776;51.046;6.772;2023-05-07T02:09:25;15.30;99.90
5508;DHT22;2776;51.046;6.772;2023-05-07T02:11:52;15.30;99.90
5508;DHT22;2776;51.046;6.772;2023-05-07T02:14:20;15.30;99.90
5508;DHT22;2776;51.046;6.772;2023-05-07T02:16:47;15.20;99.90
5508;DHT22;2776;51.046;6.772;2023-05-07T02:19:13;15.20;99.90
5508;DHT22;2776;51.046;6.772;2023-05-07T02:21:40;15.10;99.90
5508;DHT22;2776;51.046;6.772;2023-05-07T02:24:07;15.10;99.90
5508;DHT22;2776;51.046;6.772;2023-05-07T02:26:34;15.10;99.90
5508;DHT22;2776;51.046;6.772;2023-05-07T02:29:00;15.00;99.90
5508;DHT22;2776;51.046;6.772;2023-05-07T02:31:29;15.00;99.90
5508;DHT22;2776;51.046;6.772;2023-05-07T02:33:55;14.90;99.90
5508;DHT22;2776;51.046;6.772;2023-05-07T02:36:22;14.70;99.90
5508;DHT22;2776;51.046;6.772;2023-05-07T02:38:49;14.70;99.90
5508;DHT22;2776;51.046;6.772;2023-05-07T02:41:16;14.60;99.90
5508;DHT22;2776;51.046;6.772;2023-05-07T02:43:42;14.60;99.90
5508;DHT22;2776;51.046;6.772;2023-05-07T02:46:09;14.50;99.90
5508;DHT22;2776;51.046;6.772;2023-05-07T02:48:37;14.50;99.90
5508;DHT22;2776;51.046;6.772;2023-05-07T02:51:04;14.40;99.90
5508;DHT22;2776;51.046;6.772;2023-05-07T02:53:31;14.40;99.90
5508;DHT22;2776;51.046;6.772;2023-05-07T02:55:59;14.30;99.90
5508;DHT22;2776;51.046;6.772;2023-05-07T02:58:26;14.30;99.90
5508;DHT22;2776;51.046;6.772;2023-05-07T03:00:53;14.30;99.90
5508;DHT22;2776;51.046;6.772;2023-05-07T03:03:20;14.30;99.90
5508;DHT22;2776;51.046;6.772;2023-05-07T03:05:48;14.30;99.90
5508;DHT22;2776;51.046;6.772;2023-05-07T03:08:15;14.30;99.90
5508;DHT22;2776;51.046;6.772;2023-05-07T03:10:42;14.30;99.90
5508;DHT22;2776;51.046;6.772;2023-05-07T03:13:08;14.30;99.90
5508;DHT22;2776;51.046;6.772;2023-05-07T03:15:35;14.40;99.90
5508;DHT22;2776;51.046;6.772;2023-05-07T03:18:02;14.30;99.90
5508;DHT22;2776;51.046;6.772;2023-05-07T03:20:28;14.30;99.90
5508;DHT22;2776;51.046;6.772;2023-05-07T03:22:56;14.30;99.90
5508;DHT22;2776;51.046;6.772;2023-05-07T03:25:23;14.30;99.90
5508;DHT22;2776;51.046;6.772;2023-05-07T03:27:50;14.40;99.90
5508;DHT22;2776;51.046;6.772;2023-05-07T03:30:17;14.30;99.90
5508;DHT22;2776;51.046;6.772;2023-05-07T03:32:44;14.30;99.90
5508;DHT22;2776;51.046;6.772;2023-05-07T03:35:10;14.30;99.90
5508;DHT22;2776;51.046;6.772;2023-05-07T03:37:38;14.30;99.90
5508;DHT22;2776;51.046;6.772;2023-05-07T03:40:07;14.30;99.90
5508;DHT22;2776;51.046;6.772;2023-05-07T03:42:35;14.30;99.90
5508;DHT22;2776;51.046;6.772;2023-05-07T03:45:02;14.30;99.90
5508;DHT22;2776;51.046;6.772;2023-05-07T03:47:29;14.30;99.90
5508;DHT22;2776;51.046;6.772;2023-05-07T03:49:56;14.30;99.90
5508;DHT22;2776;51.046;6.772;2023-05-07T03:52:23;14.40;99.90
5508;DHT22;2776;51.046;6.772;2023-05-07T03:54:51;14.40;99.90
5508;DHT22;2776;51.046;6.772;2023-05-07T03:57:20;14.30;99.90
5508;DHT22;2776;51.046;6.772;2023-05-07T03:59:46;14.30;99.90
5508;DHT22;2776;51.046;6.772;2023-05-07T04:02:13;14.30;99.90
5508;DHT22;2776;51.046;6.772;2023-05-07T04:04:40;14.30;99.90
5508;DHT22;2776;51.046;6.772;2023-05-07T04:07:06;14.40;99.90
5508;DHT22;2776;51.046;6.772;2023-05-07T04:09:33;14.40;99.90
5508;DHT22;2776;51.046;6.772;2023-05-07T04:12:00;14.30;99.90
5508;DHT22;2776;51.046;6.772;2023-05-07T04:14:28;14.40;99.90
5508;DHT22;2776;51.046;6.772;2023-05-07T04:16:57;14.40;99.90
5508;DHT22;2776;51.046;6.772;2023-05-07T04:19:24;14.30;99.90
5508;DHT22;2776;51.046;6.772;2023-05-07T04:21:51;14.40;99.90
5508;DHT22;2776;51.046;6.772;2023-05-07T04:24:17;14.40;99.90
5508;DHT22;2776;51.046;6.772;2023-05-07T04:26:44;14.40;99.90
5508;DHT22;2776;51.046;6.772;2023-05-07T04:29:11;14.40;99.90
5508;DHT22;2776;51.046;6.772;2023-05-07T04:31:39;14.50;99.90
5508;DHT22;2776;51.046;6.772;2023-05-07T04:34:06;14.50;99.90
5508;DHT22;2776;51.046;6.772;2023-05-07T04:36:33;14.60;99.90
5508;DHT22;2776;51.046;6.772;2023-05-07T04:38:59;14.70;99.90
5508;DHT22;2776;51.046;6.772;2023-05-07T04:41:26;14.80;99.90
5508;DHT22;2776;51.046;6.772;2023-05-07T04:43:53;14.90;99.90
5508;DHT22;2776;51.046;6.772;2023-05-07T04:46:20;15.00;99.90
5508;DHT22;2776;51.046;6.772;2023-05-07T04:48:48;15.10;99.90
5508;DHT22;2776;51.046;6.772;2023-05-07T04:51:15;15.20;99.90
5508;DHT22;2776;51.046;6.772;2023-05-07T04:53:42;15.20;99.90
5508;DHT22;2776;51.046;6.772;2023-05-07T04:56:09;15.20;99.90
5508;DHT22;2776;51.046;6.772;2023-05-07T04:58:35;15.30;99.90
5508;DHT22;2776;51.046;6.772;2023-05-07T05:01:02;15.20;99.90
5508;DHT22;2776;51.046;6.772;2023-05-07T05:03:30;15.30;99.90
5508;DHT22;2776;51.046;6.772;2023-05-07T05:05:58;15.30;99.90
5508;DHT22;2776;51.046;6.772;2023-05-07T05:08:25;15.40;99.90
5508;DHT22;2776;51.046;6.772;2023-05-07T05:10:52;15.50;99.90
5508;DHT22;2776;51.046;6.772;2023-05-07T05:13:19;15.50;99.90
5508;DHT22;2776;51.046;6.772;2023-05-07T05:15:46;15.60;99.90
5508;DHT22;2776;51.046;6.772;2023-05-07T05:18:13;15.60;99.90
5508;DHT22;2776;51.046;6.772;2023-05-07T05:20:40;15.60;99.90
5508;DHT22;2776;51.046;6.772;2023-05-07T05:23:08;15.70;99.90
5508;DHT22;2776;51.046;6.772;2023-05-07T05:25:35;15.80;99.90
5508;DHT22;2776;51.046;6.772;2023-05-07T05:28:02;15.70;99.90
5508;DHT22;2776;51.046;6.772;2023-05-07T05:30:29;15.80;99.90
5508;DHT22;2776;51.046;6.772;2023-05-07T05:32:56;15.90;99.90
5508;DHT22;2776;51.046;6.772;2023-05-07T05:35:23;15.90;99.90
5508;DHT22;2776;51.046;6.772;2023-05-07T05:37:49;16.00;99.90
5508;DHT22;2776;51.046;6.772;2023-05-07T05:40:17;16.10;99.90
5508;DHT22;2776;51.046;6.772;2023-05-07T05:42:44;16.10;99.90
5508;DHT22;2776;51.046;6.772;2023-05-07T05:45:11;16.10;99.90
5508;DHT22;2776;51.046;6.772;2023-05-07T05:47:38;16.10;99.90
5508;DHT22;2776;51.046;6.772;2023-05-07T05:50:06;16.20;99.90
5508;DHT22;2776;51.046;6.772;2023-05-07T05:52:33;16.20;99.90
5508;DHT22;2776;51.046;6.772;2023-05-07T05:55:00;16.20;99.90
5508;DHT22;2776;51.046;6.772;2023-05-07T05:57:28;16.20;99.90
5508;DHT22;2776;51.046;6.772;2023-05-07T05:59:55;16.20;99.90
5508;DHT22;2776;51.046;6.772;2023-05-07T06:02:21;16.30;99.90
5508;DHT22;2776;51.046;6.772;2023-05-07T06:04:48;16.30;99.90
5508;DHT22;2776;51.046;6.772;2023-05-07T06:07:15;16.40;99.90
5508;DHT22;2776;51.046;6.772;2023-05-07T06:09:42;16.50;99.90
5508;DHT22;2776;51.046;6.772;2023-05-07T06:12:08;16.60;99.90
5508;DHT22;2776;51.046;6.772;2023-05-07T06:14:36;16.80;99.90
5508;DHT22;2776;51.046;6.772;2023-05-07T06:17:03;17.00;99.90
5508;DHT22;2776;51.046;6.772;2023-05-07T06:19:30;17.20;99.90
5508;DHT22;2776;51.046;6.772;2023-05-07T06:21:57;17.40;99.90
5508;DHT22;2776;51.046;6.772;2023-05-07T06:24:24;17.60;99.90
5508;DHT22;2776;51.046;6.772;2023-05-07T06:26:51;18.00;99.90
5508;DHT22;2776;51.046;6.772;2023-05-07T06:29:18;18.20;99.90
5508;DHT22;2776;51.046;6.772;2023-05-07T06:31:46;18.20;99.90
5508;DHT22;2776;51.046;6.772;2023-05-07T06:34:12;18.50;99.90
5508;DHT22;2776;51.046;6.772;2023-05-07T06:36:40;18.50;99.90
5508;DHT22;2776;51.046;6.772;2023-05-07T06:39:07;18.50;99.90
5508;DHT22;2776;51.046;6.772;2023-05-07T06:41:34;18.40;99.90
5508;DHT22;2776;51.046;6.772;2023-05-07T06:44:01;18.60;99.90
5508;DHT22;2776;51.046;6.772;2023-05-07T06:46:28;18.80;99.90
5508;DHT22;2776;51.046;6.772;2023-05-07T06:48:56;19.00;99.90
5508;DHT22;2776;51.046;6.772;2023-05-07T06:51:23;19.10;99.90
5508;DHT22;2776;51.046;6.772;2023-05-07T06:53:50;19.10;99.90
5508;DHT22;2776;51.046;6.772;2023-05-07T06:56:17;19.20;99.90
5508;DHT22;2776;51.046;6.772;2023-05-07T06:58:44;19.10;99.90
5508;DHT22;2776;51.046;6.772;2023-05-07T07:01:10;19.00;99.90
5508;DHT22;2776;51.046;6.772;2023-05-07T07:03:37;19.30;99.90
5508;DHT22;2776;51.046;6.772;2023-05-07T07:06:05;19.50;99.90
5508;DHT22;2776;51.046;6.772;2023-05-07T07:08:32;19.60;99.90
5508;DHT22;2776;51.046;6.772;2023-05-07T07:11:00;19.70;99.90
5508;DHT22;2776;51.046;6.772;2023-05-07T07:13:26;19.70;99.90
5508;DHT22;2776;51.046;6.772;2023-05-07T07:15:53;19.80;99.90
5508;DHT22;2776;51.046;6.772;2023-05-07T07:18:20;19.90;99.90
5508;DHT22;2776;51.046;6.772;2023-05-07T07:20:47;20.10;99.90
5508;DHT22;2776;51.046;6.772;2023-05-07T07:23:15;20.50;99.90
5508;DHT22;2776;51.046;6.772;2023-05-07T07:25:41;20.70;99.90
5508;DHT22;2776;51.046;6.772;2023-05-07T07:28:08;20.70;99.90
5508;DHT22;2776;51.046;6.772;2023-05-07T07:30:36;21.00;99.90
5508;DHT22;2776;51.046;6.772;2023-05-07T07:33:03;21.30;99.90
5508;DHT22;2776;51.046;6.772;2023-05-07T07:35:30;21.60;99.90
5508;DHT22;2776;51.046;6.772;2023-05-07T07:37:57;21.60;99.90
5508;DHT22;2776;51.046;6.772;2023-05-07T07:40:25;21.80;99.90
5508;DHT22;2776;51.046;6.772;2023-05-07T07:42:52;21.80;99.90
5508;DHT22;2776;51.046;6.772;2023-05-07T07:45:19;21.50;99.90
5508;DHT22;2776;51.046;6.772;2023-05-07T07:47:46;21.70;99.90
5508;DHT22;2776;51.046;6.772;2023-05-07T07:50:13;21.90;99.90
5508;DHT22;2776;51.046;6.772;2023-05-07T07:52:40;21.80;99.90
5508;DHT22;2776;51.046;6.772;2023-05-07T07:55:07;21.60;99.90
5508;DHT22;2776;51.046;6.772;2023-05-07T07:57:36;21.80;99.90
5508;DHT22;2776;51.046;6.772;2023-05-07T08:00:03;22.20;99.90
5508;DHT22;2776;51.046;6.772;2023-05-07T08:02:31;22.20;99.90
5508;DHT22;2776;51.046;6.772;2023-05-07T08:04:58;22.40;99.90
5508;DHT22;2776;51.046;6.772;2023-05-07T08:07:25;22.30;99.90
5508;DHT22;2776;51.046;6.772;2023-05-07T08:09:52;22.50;99.90
5508;DHT22;2776;51.046;6.772;2023-05-07T08:12:18;22.40;99.90
5508;DHT22;2776;51.046;6.772;2023-05-07T08:14:46;22.70;99.90
5508;DHT22;2776;51.046;6.772;2023-05-07T08:17:13;22.90;99.90
5508;DHT22;2776;51.046;6.772;2023-05-07T08:19:41;23.00;99.90
5508;DHT22;2776;51.046;6.772;2023-05-07T08:22:08;23.10;99.90
5508;DHT22;2776;51.046;6.772;2023-05-07T08:24:36;23.30;99.90
5508;DHT22;2776;51.046;6.772;2023-05-07T08:27:03;23.50;99.90
5508;DHT22;2776;51.046;6.772;2023-05-07T08:29:29;23.80;99.90
5508;DHT22;2776;51.046;6.772;2023-05-07T08:31:57;24.00;99.90
5508;DHT22;2776;51.046;6.772;2023-05-07T08:34:24;24.10;99.90
5508;DHT22;2776;51.046;6.772;2023-05-07T08:36:51;24.50;99.90
5508;DHT22;2776;51.046;6.772;2023-05-07T08:39:17;24.70;99.90
5508;DHT22;2776;51.046;6.772;2023-05-07T08:41:45;24.80;99.90
5508;DHT22;2776;51.046;6.772;2023-05-07T08:44:13;25.10;99.90
5508;DHT22;2776;51.046;6.772;2023-05-07T08:46:41;25.30;99.70
5508;DHT22;2776;51.046;6.772;2023-05-07T08:49:10;25.10;97.00
5508;DHT22;2776;51.046;6.772;2023-05-07T08:51:37;25.30;97.30
5508;DHT22;2776;51.046;6.772;2023-05-07T08:54:04;25.40;99.00
5508;DHT22;2776;51.046;6.772;2023-05-07T08:56:32;25.40;96.50
5508;DHT22;2776;51.046;6.772;2023-05-07T08:58:59;25.00;97.30
5508;DHT22;2776;51.046;6.772;2023-05-07T09:01:26;25.00;97.30
5508;DHT22;2776;51.046;6.772;2023-05-07T09:03:53;24.40;96.30
5508;DHT22;2776;51.046;6.772;2023-05-07T09:06:21;24.30;99.40
5508;DHT22;2776;51.046;6.772;2023-05-07T09:08:51;24.20;98.80
5508;DHT22;2776;51.046;6.772;2023-05-07T09:11:20;24.20;97.30
5508;DHT22;2776;51.046;6.772;2023-05-07T09:13:48;24.10;98.10
5508;DHT22;2776;51.046;6.772;2023-05-07T09:16:15;24.30;97.30
5508;DHT22;2776;51.046;6.772;2023-05-07T09:18:42;24.00;98.50
5508;DHT22;2776;51.046;6.772;2023-05-07T09:21:15;24.10;99.80
5508;DHT22;2776;51.046;6.772;2023-05-07T09:23:44;24.70;98.60
5508;DHT22;2776;51.046;6.772;2023-05-07T09:26:11;25.10;98.40
5508;DHT22;2776;51.046;6.772;2023-05-07T09:28:39;25.50;97.20
5508;DHT22;2776;51.046;6.772;2023-05-07T09:31:06;25.60;94.90
5508;DHT22;2776;51.046;6.772;2023-05-07T09:33:33;25.50;93.60
5508;DHT22;2776;51.046;6.772;2023-05-07T09:36:03;25.30;93.80
5508;DHT22;2776;51.046;6.772;2023-05-07T09:38:30;25.40;96.20
5508;DHT22;2776;51.046;6.772;2023-05-07T09:41:05;25.40;95.20
5508;DHT22;2776;51.046;6.772;2023-05-07T09:43:32;25.40;92.70
5508;DHT22;2776;51.046;6.772;2023-05-07T09:46:02;25.30;94.40
5508;DHT22;2776;51.046;6.772;2023-05-07T09:48:30;25.30;95.50
5508;DHT22;2776;51.046;6.772;2023-05-07T09:53:27;24.90;94.30
5508;DHT22;2776;51.046;6.772;2023-05-07T09:55:56;24.90;96.60
5508;DHT22;2776;51.046;6.772;2023-05-07T09:58:26;25.10;96.50
5508;DHT22;2776;51.046;6.772;2023-05-07T10:00:52;25.20;94.00
5508;DHT22;2776;51.046;6.772;2023-05-07T10:03:20;25.10;95.10
5508;DHT22;2776;51.046;6.772;2023-05-07T10:05:49;25.10;94.30
5508;DHT22;2776;51.046;6.772;2023-05-07T10:08:17;24.80;95.10
5508;DHT22;2776;51.046;6.772;2023-05-07T10:10:45;24.40;94.60
5508;DHT22;2776;51.046;6.772;2023-05-07T10:13:12;24.50;95.30
5508;DHT22;2776;51.046;6.772;2023-05-07T10:15:41;24.30;95.80
5508;DHT22;2776;51.046;6.772;2023-05-07T10:18:08;24.20;94.80
5508;DHT22;2776;51.046;6.772;2023-05-07T10:20:36;24.20;95.20
5508;DHT22;2776;51.046;6.772;2023-05-07T10:23:04;24.50;96.20
5508;DHT22;2776;51.046;6.772;2023-05-07T10:25:32;24.60;95.30
5508;DHT22;2776;51.046;6.772;2023-05-07T10:28:02;24.70;96.50
5508;DHT22;2776;51.046;6.772;2023-05-07T10:30:37;24.70;96.40
5508;DHT22;2776;51.046;6.772;2023-05-07T10:33:07;24.90;96.90
5508;DHT22;2776;51.046;6.772;2023-05-07T10:35:37;25.20;97.30
5508;DHT22;2776;51.046;6.772;2023-05-07T10:38:06;25.20;98.00
5508;DHT22;2776;51.046;6.772;2023-05-07T10:40:33;25.40;93.60
5508;DHT22;2776;51.046;6.772;2023-05-07T10:43:01;25.60;92.30
5508;DHT22;2776;51.046;6.772;2023-05-07T10:45:30;25.40;90.10
5508;DHT22;2776;51.046;6.772;2023-05-07T10:48:09;25.30;87.50
5508;DHT22;2776;51.046;6.772;2023-05-07T10:50:37;24.90;91.30
5508;DHT22;2776;51.046;6.772;2023-05-07T10:53:23;24.70;85.50
5508;DHT22;2776;51.046;6.772;2023-05-07T10:56:25;24.60;86.90
5508;DHT22;2776;51.046;6.772;2023-05-07T10:58:55;24.70;88.90
5508;DHT22;2776;51.046;6.772;2023-05-07T11:01:50;24.50;85.90
5508;DHT22;2776;51.046;6.772;2023-05-07T11:04:18;24.50;92.00
5508;DHT22;2776;51.046;6.772;2023-05-07T11:10:00;24.70;90.90
5508;DHT22;2776;51.046;6.772;2023-05-07T11:12:50;24.70;89.10
5508;DHT22;2776;51.046;6.772;2023-05-07T11:15:40;24.60;90.10
5508;DHT22;2776;51.046;6.772;2023-05-07T11:18:10;24.70;85.50
5508;DHT22;2776;51.046;6.772;2023-05-07T11:20:45;24.90;82.40
5508;DHT22;2776;51.046;6.772;2023-05-07T11:26:13;25.10;85.30
5508;DHT22;2776;51.046;6.772;2023-05-07T11:28:42;25.20;82.90
5508;DHT22;2776;51.046;6.772;2023-05-07T11:31:10;25.00;81.30
5508;DHT22;2776;51.046;6.772;2023-05-07T11:33:38;25.00;79.50
5508;DHT22;2776;51.046;6.772;2023-05-07T11:36:07;25.00;81.30
5508;DHT22;2776;51.046;6.772;2023-05-07T11:38:35;25.20;74.70
5508;DHT22;2776;51.046;6.772;2023-05-07T11:41:02;25.40;76.00
5508;DHT22;2776;51.046;6.772;2023-05-07T11:43:30;25.70;80.40
5508;DHT22;2776;51.046;6.772;2023-05-07T11:46:07;25.80;74.60
5508;DHT22;2776;51.046;6.772;2023-05-07T11:48:34;26.00;72.90
5508;DHT22;2776;51.046;6.772;2023-05-07T11:51:01;26.20;70.50
5508;DHT22;2776;51.046;6.772;2023-05-07T11:53:35;26.40;70.10
5508;DHT22;2776;51.046;6.772;2023-05-07T11:56:06;26.50;70.40
5508;DHT22;2776;51.046;6.772;2023-05-07T11:58:33;26.60;71.80
5508;DHT22;2776;51.046;6.772;2023-05-07T12:01:00;26.60;65.80
5508;DHT22;2776;51.046;6.772;2023-05-07T12:03:28;26.60;62.60
5508;DHT22;2776;51.046;6.772;2023-05-07T12:05:55;26.50;64.30
5508;DHT22;2776;51.046;6.772;2023-05-07T12:08:22;26.40;65.70
5508;DHT22;2776;51.046;6.772;2023-05-07T12:10:49;26.30;64.50
5508;DHT22;2776;51.046;6.772;2023-05-07T12:13:16;26.20;64.10
5508;DHT22;2776;51.046;6.772;2023-05-07T12:15:43;26.10;65.30
5508;DHT22;2776;51.046;6.772;2023-05-07T12:18:11;26.00;62.90
5508;DHT22;2776;51.046;6.772;2023-05-07T12:20:39;26.00;62.40
5508;DHT22;2776;51.046;6.772;2023-05-07T12:23:06;26.00;63.10
5508;DHT22;2776;51.046;6.772;2023-05-07T12:25:34;26.10;62.20
5508;DHT22;2776;51.046;6.772;2023-05-07T12:28:01;26.00;69.50
5508;DHT22;2776;51.046;6.772;2023-05-07T12:30:30;25.80;67.20
5508;DHT22;2776;51.046;6.772;2023-05-07T12:32:57;25.50;69.40
5508;DHT22;2776;51.046;6.772;2023-05-07T12:35:27;25.50;72.50
5508;DHT22;2776;51.046;6.772;2023-05-07T12:37:56;25.40;66.90
5508;DHT22;2776;51.046;6.772;2023-05-07T12:40:34;25.10;70.80
5508;DHT22;2776;51.046;6.772;2023-05-07T12:43:01;25.30;68.80
5508;DHT22;2776;51.046;6.772;2023-05-07T12:45:28;25.40;67.70
5508;DHT22;2776;51.046;6.772;2023-05-07T12:47:55;25.50;76.70
5508;DHT22;2776;51.046;6.772;2023-05-07T12:50:23;25.40;74.70
5508;DHT22;2776;51.046;6.772;2023-05-07T12:52:49;25.10;71.00
5508;DHT22;2776;51.046;6.772;2023-05-07T12:55:17;25.10;70.40
5508;DHT22;2776;51.046;6.772;2023-05-07T12:57:48;25.30;75.20
5508;DHT22;2776;51.046;6.772;2023-05-07T13:00:16;25.50;79.60
5508;DHT22;2776;51.046;6.772;2023-05-07T13:02:44;25.60;83.00
5508;DHT22;2776;51.046;6.772;2023-05-07T13:05:11;25.60;83.70
5508;DHT22;2776;51.046;6.772;2023-05-07T13:07:38;25.50;78.10
5508;DHT22;2776;51.046;6.772;2023-05-07T13:10:07;25.70;85.50
5508;DHT22;2776;51.046;6.772;2023-05-07T13:12:35;25.80;81.20
5508;DHT22;2776;51.046;6.772;2023-05-07T13:15:02;25.90;83.50
5508;DHT22;2776;51.046;6.772;2023-05-07T13:17:29;25.90;85.20
5508;DHT22;2776;51.046;6.772;2023-05-07T13:19:56;26.10;84.80
5508;DHT22;2776;51.046;6.772;2023-05-07T13:22:23;26.10;84.50
5508;DHT22;2776;51.046;6.772;2023-05-07T13:24:49;26.20;86.80
5508;DHT22;2776;51.046;6.772;2023-05-07T13:27:16;26.00;88.20
5508;DHT22;2776;51.046;6.772;2023-05-07T13:29:45;26.00;87.10
5508;DHT22;2776;51.046;6.772;2023-05-07T13:32:12;25.90;89.60
5508;DHT22;2776;51.046;6.772;2023-05-07T13:34:39;25.90;89.30
5508;DHT22;2776;51.046;6.772;2023-05-07T13:37:06;25.60;88.90
5508;DHT22;2776;51.046;6.772;2023-05-07T13:39:33;25.60;95.00
5508;DHT22;2776;51.046;6.772;2023-05-07T13:42:00;25.80;96.50
5508;DHT22;2776;51.046;6.772;2023-05-07T13:44:26;25.60;93.10
5508;DHT22;2776;51.046;6.772;2023-05-07T13:46:54;25.20;93.30
5508;DHT22;2776;51.046;6.772;2023-05-07T13:49:21;24.90;92.60
5508;DHT22;2776;51.046;6.772;2023-05-07T13:51:49;24.70;93.70
5508;DHT22;2776;51.046;6.772;2023-05-07T13:54:15;24.60;98.20
5508;DHT22;2776;51.046;6.772;2023-05-07T13:56:42;24.50;99.90
5508;DHT22;2776;51.046;6.772;2023-05-07T13:59:09;24.10;99.70
5508;DHT22;2776;51.046;6.772;2023-05-07T14:01:36;23.90;99.90
5508;DHT22;2776;51.046;6.772;2023-05-07T14:04:04;23.50;99.90
5508;DHT22;2776;51.046;6.772;2023-05-07T14:06:31;23.40;99.90
5508;DHT22;2776;51.046;6.772;2023-05-07T14:08:57;23.30;99.90
5508;DHT22;2776;51.046;6.772;2023-05-07T14:11:25;23.30;99.90
5508;DHT22;2776;51.046;6.772;2023-05-07T14:13:52;23.00;99.90
5508;DHT22;2776;51.046;6.772;2023-05-07T14:16:18;23.00;99.90
5508;DHT22;2776;51.046;6.772;2023-05-07T14:18:45;23.10;99.90
5508;DHT22;2776;51.046;6.772;2023-05-07T14:21:13;23.20;99.90
5508;DHT22;2776;51.046;6.772;2023-05-07T14:23:40;23.20;99.90
5508;DHT22;2776;51.046;6.772;2023-05-07T14:26:07;23.40;99.90
5508;DHT22;2776;51.046;6.772;2023-05-07T14:28:33;23.30;99.90
5508;DHT22;2776;51.046;6.772;2023-05-07T14:31:00;23.30;99.90
5508;DHT22;2776;51.046;6.772;2023-05-07T14:33:27;23.10;99.90
5508;DHT22;2776;51.046;6.772;2023-05-07T14:35:54;22.70;99.90
5508;DHT22;2776;51.046;6.772;2023-05-07T14:38:22;22.70;99.90
5508;DHT22;2776;51.046;6.772;2023-05-07T14:40:49;22.60;99.90
5508;DHT22;2776;51.046;6.772;2023-05-07T14:43:15;22.50;99.90
5508;DHT22;2776;51.046;6.772;2023-05-07T14:45:42;22.50;99.90
5508;DHT22;2776;51.046;6.772;2023-05-07T14:48:09;22.40;99.90
5508;DHT22;2776;51.046;6.772;2023-05-07T14:50:40;22.50;99.90
5508;DHT22;2776;51.046;6.772;2023-05-07T14:53:07;22.60;99.90
5508;DHT22;2776;51.046;6.772;2023-05-07T14:55:35;22.70;99.90
5508;DHT22;2776;51.046;6.772;2023-05-07T14:58:02;22.70;99.90
5508;DHT22;2776;51.046;6.772;2023-05-07T15:00:29;22.60;99.90
5508;DHT22;2776;51.046;6.772;2023-05-07T15:02:59;22.50;99.90
5508;DHT22;2776;51.046;6.772;2023-05-07T15:05:28;22.40;99.90
5508;DHT22;2776;51.046;6.772;2023-05-07T15:07:55;22.30;99.90
5508;DHT22;2776;51.046;6.772;2023-05-07T15:10:22;22.10;99.90
5508;DHT22;2776;51.046;6.772;2023-05-07T15:12:50;22.00;99.90
5508;DHT22;2776;51.046;6.772;2023-05-07T15:15:17;22.00;99.90
5508;DHT22;2776;51.046;6.772;2023-05-07T15:17:43;21.90;99.90
5508;DHT22;2776;51.046;6.772;2023-05-07T15:20:10;21.90;99.90
5508;DHT22;2776;51.046;6.772;2023-05-07T15:22:37;21.90;99.90
5508;DHT22;2776;51.046;6.772;2023-05-07T15:25:04;21.80;99.90
5508;DHT22;2776;51.046;6.772;2023-05-07T15:27:31;21.80;99.90
5508;DHT22;2776;51.046;6.772;2023-05-07T15:29:59;21.80;99.90
5508;DHT22;2776;51.046;6.772;2023-05-07T15:32:26;21.70;99.90
5508;DHT22;2776;51.046;6.772;2023-05-07T15:34:53;21.60;99.90
5508;DHT22;2776;51.046;6.772;2023-05-07T15:37:20;21.50;99.90
5508;DHT22;2776;51.046;6.772;2023-05-07T15:39:46;21.50;99.90
5508;DHT22;2776;51.046;6.772;2023-05-07T15:42:13;21.60;99.90
5508;DHT22;2776;51.046;6.772;2023-05-07T15:44:40;21.60;99.90
5508;DHT22;2776;51.046;6.772;2023-05-07T15:47:08;21.70;99.90
5508;DHT22;2776;51.046;6.772;2023-05-07T15:49:34;21.70;99.90
5508;DHT22;2776;51.046;6.772;2023-05-07T15:52:01;21.70;99.90
5508;DHT22;2776;51.046;6.772;2023-05-07T15:54:28;21.80;99.90
5508;DHT22;2776;51.046;6.772;2023-05-07T15:56:55;21.70;99.90
5508;DHT22;2776;51.046;6.772;2023-05-07T15:59:21;21.70;99.90
5508;DHT22;2776;51.046;6.772;2023-05-07T16:01:48;21.60;99.90
5508;DHT22;2776;51.046;6.772;2023-05-07T16:04:17;21.70;99.90
5508;DHT22;2776;51.046;6.772;2023-05-07T16:06:43;21.70;99.90
5508;DHT22;2776;51.046;6.772;2023-05-07T16:09:11;21.70;99.90
5508;DHT22;2776;51.046;6.772;2023-05-07T16:11:38;21.70;99.90
5508;DHT22;2776;51.046;6.772;2023-05-07T16:14:05;21.70;99.90